Boone, Nebraska
Current Conditions -  °F | °C
As of 12:35 PM on Thursday 27 Nov 2014 (Local Time) from KBVN Reporting Station
Clear Clear  
Wind Chill: 14°   Ceiling: Unl
Heat Index: 27°   Visibility: 10mi
Dew Point: 13°   Wind: 16mph
Humidity: 56%   Direction: 140°SE
Pressure: 30.31"   Gusts: NA
Location:  41.747°N, 98.0152°W
Report Text: KBVN 271835Z AUTO 14014KT 10SM CLR M03/M11 A3031 RMK AO2 T10301107
Loading
Personal Weather Stations






























Interactive Weather Map New forecast layout! Learn more

10-Day Weather Forecast

Advertisements
Track Severe Weather on mobile